sensor_id;sensor_type;location;lat;lon;timestamp;P1;durP1;ratioP1;P2;durP2;ratioP2
33864;SDS011;20159;51.072;13.526;2022-10-17T00:01:28;4.63;;;2.40;;
33864;SDS011;20159;51.072;13.526;2022-10-17T00:03:53;2.90;;;2.28;;
33864;SDS011;20159;51.072;13.526;2022-10-17T00:06:19;3.75;;;2.30;;
33864;SDS011;20159;51.072;13.526;2022-10-17T00:08:45;4.55;;;2.28;;
33864;SDS011;20159;51.072;13.526;2022-10-17T00:11:15;3.78;;;2.53;;
33864;SDS011;20159;51.072;13.526;2022-10-17T00:13:46;5.93;;;2.20;;
33864;SDS011;20159;51.072;13.526;2022-10-17T00:16:14;3.50;;;2.00;;
33864;SDS011;20159;51.072;13.526;2022-10-17T00:18:47;2.60;;;2.40;;
33864;SDS011;20159;51.072;13.526;2022-10-17T00:21:16;3.25;;;2.40;;
33864;SDS011;20159;51.072;13.526;2022-10-17T00:23:43;2.60;;;2.38;;
33864;SDS011;20159;51.072;13.526;2022-10-17T00:26:09;5.05;;;2.47;;
33864;SDS011;20159;51.072;13.526;2022-10-17T00:28:34;5.10;;;2.20;;
33864;SDS011;20159;51.072;13.526;2022-10-17T00:31:01;2.85;;;2.55;;
33864;SDS011;20159;51.072;13.526;2022-10-17T00:33:28;3.95;;;2.50;;
33864;SDS011;20159;51.072;13.526;2022-10-17T00:36:28;3.17;;;2.05;;
33864;SDS011;20159;51.072;13.526;2022-10-17T00:38:52;2.63;;;1.85;;
33864;SDS011;20159;51.072;13.526;2022-10-17T00:41:20;4.47;;;2.13;;
33864;SDS011;20159;51.072;13.526;2022-10-17T00:43:52;3.08;;;2.35;;
33864;SDS011;20159;51.072;13.526;2022-10-17T00:46:28;2.55;;;2.03;;
33864;SDS011;20159;51.072;13.526;2022-10-17T00:48:56;2.60;;;2.20;;
33864;SDS011;20159;51.072;13.526;2022-10-17T00:51:25;3.20;;;2.40;;
33864;SDS011;20159;51.072;13.526;2022-10-17T00:53:57;3.25;;;2.25;;
33864;SDS011;20159;51.072;13.526;2022-10-17T00:56:23;2.83;;;2.10;;
33864;SDS011;20159;51.072;13.526;2022-10-17T00:58:49;4.78;;;2.45;;
33864;SDS011;20159;51.072;13.526;2022-10-17T01:01:14;2.65;;;2.10;;
33864;SDS011;20159;51.072;13.526;2022-10-17T01:03:40;3.20;;;2.60;;
33864;SDS011;20159;51.072;13.526;2022-10-17T01:06:06;2.47;;;2.28;;
33864;SDS011;20159;51.072;13.526;2022-10-17T01:08:31;3.47;;;2.70;;
33864;SDS011;20159;51.072;13.526;2022-10-17T01:13:29;2.95;;;2.63;;
33864;SDS011;20159;51.072;13.526;2022-10-17T01:16:09;3.03;;;2.17;;
33864;SDS011;20159;51.072;13.526;2022-10-17T01:21:23;3.15;;;2.53;;
33864;SDS011;20159;51.072;13.526;2022-10-17T01:23:53;7.63;;;2.42;;
33864;SDS011;20159;51.072;13.526;2022-10-17T01:32:30;5.90;;;2.80;;
33864;SDS011;20159;51.072;13.526;2022-10-17T01:35:06;2.65;;;2.38;;
33864;SDS011;20159;51.072;13.526;2022-10-17T01:37:46;5.13;;;2.72;;
33864;SDS011;20159;51.072;13.526;2022-10-17T01:40:21;5.07;;;2.85;;
33864;SDS011;20159;51.072;13.526;2022-10-17T01:43:32;5.78;;;2.75;;
33864;SDS011;20159;51.072;13.526;2022-10-17T01:45:50;2.55;;;2.35;;
33864;SDS011;20159;51.072;13.526;2022-10-17T01:48:23;3.95;;;2.40;;
33864;SDS011;20159;51.072;13.526;2022-10-17T01:50:53;2.90;;;2.60;;
33864;SDS011;20159;51.072;13.526;2022-10-17T01:53:33;5.32;;;2.63;;
33864;SDS011;20159;51.072;13.526;2022-10-17T01:56:04;3.22;;;2.47;;
33864;SDS011;20159;51.072;13.526;2022-10-17T01:58:33;3.00;;;2.70;;
33864;SDS011;20159;51.072;13.526;2022-10-17T02:01:05;4.28;;;2.50;;
33864;SDS011;20159;51.072;13.526;2022-10-17T02:03:33;2.72;;;2.53;;
33864;SDS011;20159;51.072;13.526;2022-10-17T02:05:59;7.13;;;2.83;;
33864;SDS011;20159;51.072;13.526;2022-10-17T02:08:26;2.92;;;2.42;;
33864;SDS011;20159;51.072;13.526;2022-10-17T02:13:41;2.50;;;2.30;;
33864;SDS011;20159;51.072;13.526;2022-10-17T02:24:48;3.35;;;2.28;;
33864;SDS011;20159;51.072;13.526;2022-10-17T02:35:27;6.20;;;2.17;;
33864;SDS011;20159;51.072;13.526;2022-10-17T02:37:56;2.80;;;2.30;;
33864;SDS011;20159;51.072;13.526;2022-10-17T02:40:24;2.80;;;2.10;;
33864;SDS011;20159;51.072;13.526;2022-10-17T02:42:51;4.18;;;2.55;;
33864;SDS011;20159;51.072;13.526;2022-10-17T02:45:19;2.95;;;2.15;;
33864;SDS011;20159;51.072;13.526;2022-10-17T02:47:49;2.83;;;2.20;;
33864;SDS011;20159;51.072;13.526;2022-10-17T02:50:31;2.20;;;1.88;;
33864;SDS011;20159;51.072;13.526;2022-10-17T02:53:13;3.67;;;2.35;;
33864;SDS011;20159;51.072;13.526;2022-10-17T02:55:48;2.28;;;2.08;;
33864;SDS011;20159;51.072;13.526;2022-10-17T02:58:22;2.35;;;2.13;;
33864;SDS011;20159;51.072;13.526;2022-10-17T03:00:52;2.58;;;2.10;;
33864;SDS011;20159;51.072;13.526;2022-10-17T03:03:18;3.75;;;2.03;;
33864;SDS011;20159;51.072;13.526;2022-10-17T03:05:46;3.13;;;2.05;;
33864;SDS011;20159;51.072;13.526;2022-10-17T03:08:11;2.95;;;2.03;;
33864;SDS011;20159;51.072;13.526;2022-10-17T03:10:37;3.88;;;2.10;;
33864;SDS011;20159;51.072;13.526;2022-10-17T03:13:03;2.60;;;2.40;;
33864;SDS011;20159;51.072;13.526;2022-10-17T03:15:28;3.17;;;2.30;;
33864;SDS011;20159;51.072;13.526;2022-10-17T03:17:54;4.43;;;2.22;;
33864;SDS011;20159;51.072;13.526;2022-10-17T03:20:19;2.95;;;1.70;;
33864;SDS011;20159;51.072;13.526;2022-10-17T03:22:45;3.40;;;2.30;;
33864;SDS011;20159;51.072;13.526;2022-10-17T03:25:10;3.42;;;2.25;;
33864;SDS011;20159;51.072;13.526;2022-10-17T03:27:36;3.00;;;2.00;;
33864;SDS011;20159;51.072;13.526;2022-10-17T03:30:01;2.50;;;1.85;;
33864;SDS011;20159;51.072;13.526;2022-10-17T03:32:27;5.10;;;2.30;;
33864;SDS011;20159;51.072;13.526;2022-10-17T03:34:53;2.72;;;1.80;;
33864;SDS011;20159;51.072;13.526;2022-10-17T03:37:18;3.15;;;2.42;;
33864;SDS011;20159;51.072;13.526;2022-10-17T03:39:44;6.10;;;2.40;;
33864;SDS011;20159;51.072;13.526;2022-10-17T03:42:09;2.97;;;2.17;;
33864;SDS011;20159;51.072;13.526;2022-10-17T03:44:35;4.05;;;2.20;;
33864;SDS011;20159;51.072;13.526;2022-10-17T03:47:00;2.83;;;2.05;;
33864;SDS011;20159;51.072;13.526;2022-10-17T03:49:26;2.60;;;1.85;;
33864;SDS011;20159;51.072;13.526;2022-10-17T03:51:51;3.08;;;1.75;;
33864;SDS011;20159;51.072;13.526;2022-10-17T03:54:17;3.22;;;2.15;;
33864;SDS011;20159;51.072;13.526;2022-10-17T03:56:42;3.13;;;1.92;;
33864;SDS011;20159;51.072;13.526;2022-10-17T03:59:11;2.83;;;2.40;;
33864;SDS011;20159;51.072;13.526;2022-10-17T04:01:38;2.88;;;2.58;;
33864;SDS011;20159;51.072;13.526;2022-10-17T04:04:03;3.30;;;2.17;;
33864;SDS011;20159;51.072;13.526;2022-10-17T04:06:29;3.28;;;2.22;;
33864;SDS011;20159;51.072;13.526;2022-10-17T04:08:55;3.58;;;2.70;;
33864;SDS011;20159;51.072;13.526;2022-10-17T04:11:20;4.30;;;2.20;;
33864;SDS011;20159;51.072;13.526;2022-10-17T04:13:46;3.80;;;2.28;;
33864;SDS011;20159;51.072;13.526;2022-10-17T04:16:16;3.67;;;2.58;;
33864;SDS011;20159;51.072;13.526;2022-10-17T04:18:41;4.15;;;2.50;;
33864;SDS011;20159;51.072;13.526;2022-10-17T04:21:08;3.65;;;2.67;;
33864;SDS011;20159;51.072;13.526;2022-10-17T04:23:35;4.13;;;2.58;;
33864;SDS011;20159;51.072;13.526;2022-10-17T04:26:01;4.20;;;2.72;;
33864;SDS011;20159;51.072;13.526;2022-10-17T04:28:28;3.58;;;2.80;;
33864;SDS011;20159;51.072;13.526;2022-10-17T04:30:55;3.67;;;2.67;;
33864;SDS011;20159;51.072;13.526;2022-10-17T04:33:25;2.60;;;2.40;;
33864;SDS011;20159;51.072;13.526;2022-10-17T04:35:54;4.65;;;2.70;;
33864;SDS011;20159;51.072;13.526;2022-10-17T04:38:21;3.63;;;2.42;;
33864;SDS011;20159;51.072;13.526;2022-10-17T04:40:46;3.33;;;2.20;;
33864;SDS011;20159;51.072;13.526;2022-10-17T04:43:12;4.28;;;2.60;;
33864;SDS011;20159;51.072;13.526;2022-10-17T04:45:37;3.30;;;2.67;;
33864;SDS011;20159;51.072;13.526;2022-10-17T04:48:03;4.32;;;2.30;;
33864;SDS011;20159;51.072;13.526;2022-10-17T04:50:28;2.78;;;2.40;;
33864;SDS011;20159;51.072;13.526;2022-10-17T04:52:54;3.78;;;2.42;;
33864;SDS011;20159;51.072;13.526;2022-10-17T04:55:19;3.92;;;2.45;;
33864;SDS011;20159;51.072;13.526;2022-10-17T04:57:45;5.63;;;4.03;;
33864;SDS011;20159;51.072;13.526;2022-10-17T05:00:10;4.85;;;3.95;;
33864;SDS011;20159;51.072;13.526;2022-10-17T05:02:36;5.60;;;3.95;;
33864;SDS011;20159;51.072;13.526;2022-10-17T05:05:02;4.65;;;3.38;;
33864;SDS011;20159;51.072;13.526;2022-10-17T05:07:27;3.80;;;3.40;;
33864;SDS011;20159;51.072;13.526;2022-10-17T05:09:53;4.95;;;3.95;;
33864;SDS011;20159;51.072;13.526;2022-10-17T05:12:18;5.78;;;4.57;;
33864;SDS011;20159;51.072;13.526;2022-10-17T05:14:44;6.55;;;4.88;;
33864;SDS011;20159;51.072;13.526;2022-10-17T05:17:09;7.13;;;5.47;;
33864;SDS011;20159;51.072;13.526;2022-10-17T05:19:35;6.47;;;5.63;;
33864;SDS011;20159;51.072;13.526;2022-10-17T05:22:00;9.18;;;6.57;;
33864;SDS011;20159;51.072;13.526;2022-10-17T05:24:26;7.53;;;6.60;;
33864;SDS011;20159;51.072;13.526;2022-10-17T05:26:51;8.05;;;6.97;;
33864;SDS011;20159;51.072;13.526;2022-10-17T05:29:17;7.53;;;6.55;;
33864;SDS011;20159;51.072;13.526;2022-10-17T05:31:43;8.57;;;6.70;;
33864;SDS011;20159;51.072;13.526;2022-10-17T05:34:08;7.72;;;6.70;;
33864;SDS011;20159;51.072;13.526;2022-10-17T05:36:34;8.55;;;6.53;;
33864;SDS011;20159;51.072;13.526;2022-10-17T05:38:59;11.18;;;6.93;;
33864;SDS011;20159;51.072;13.526;2022-10-17T05:41:25;7.40;;;6.70;;
33864;SDS011;20159;51.072;13.526;2022-10-17T05:43:50;8.75;;;7.07;;
33864;SDS011;20159;51.072;13.526;2022-10-17T05:46:16;8.63;;;6.82;;
33864;SDS011;20159;51.072;13.526;2022-10-17T05:48:41;10.48;;;7.35;;
33864;SDS011;20159;51.072;13.526;2022-10-17T05:51:08;9.15;;;7.90;;
33864;SDS011;20159;51.072;13.526;2022-10-17T05:53:35;11.23;;;8.65;;
33864;SDS011;20159;51.072;13.526;2022-10-17T05:56:03;11.15;;;8.95;;
33864;SDS011;20159;51.072;13.526;2022-10-17T05:58:31;10.50;;;9.02;;
33864;SDS011;20159;51.072;13.526;2022-10-17T06:00:59;12.73;;;8.88;;
33864;SDS011;20159;51.072;13.526;2022-10-17T06:03:25;10.38;;;8.68;;
33864;SDS011;20159;51.072;13.526;2022-10-17T06:05:52;10.50;;;8.38;;
33864;SDS011;20159;51.072;13.526;2022-10-17T06:08:17;12.10;;;9.32;;
33864;SDS011;20159;51.072;13.526;2022-10-17T06:10:45;9.80;;;8.57;;
33864;SDS011;20159;51.072;13.526;2022-10-17T06:13:13;12.30;;;9.65;;
33864;SDS011;20159;51.072;13.526;2022-10-17T06:15:38;9.98;;;8.77;;
33864;SDS011;20159;51.072;13.526;2022-10-17T06:18:04;16.40;;;8.80;;
33864;SDS011;20159;51.072;13.526;2022-10-17T06:20:29;10.57;;;8.77;;
33864;SDS011;20159;51.072;13.526;2022-10-17T06:22:55;10.45;;;8.13;;
33864;SDS011;20159;51.072;13.526;2022-10-17T06:25:21;11.27;;;9.35;;
33864;SDS011;20159;51.072;13.526;2022-10-17T06:27:46;13.98;;;8.80;;
33864;SDS011;20159;51.072;13.526;2022-10-17T06:30:12;10.75;;;8.73;;
33864;SDS011;20159;51.072;13.526;2022-10-17T06:32:38;10.82;;;8.45;;
33864;SDS011;20159;51.072;13.526;2022-10-17T06:35:04;10.55;;;8.38;;
33864;SDS011;20159;51.072;13.526;2022-10-17T06:37:30;10.30;;;8.27;;
33864;SDS011;20159;51.072;13.526;2022-10-17T06:39:57;8.82;;;7.88;;
33864;SDS011;20159;51.072;13.526;2022-10-17T06:42:22;9.65;;;8.60;;
33864;SDS011;20159;51.072;13.526;2022-10-17T06:44:48;10.88;;;8.55;;
33864;SDS011;20159;51.072;13.526;2022-10-17T06:47:13;11.18;;;8.50;;
33864;SDS011;20159;51.072;13.526;2022-10-17T06:49:39;10.10;;;8.40;;
33864;SDS011;20159;51.072;13.526;2022-10-17T06:52:05;9.15;;;7.95;;
33864;SDS011;20159;51.072;13.526;2022-10-17T06:54:30;9.85;;;8.55;;
33864;SDS011;20159;51.072;13.526;2022-10-17T06:56:56;9.45;;;7.70;;
33864;SDS011;20159;51.072;13.526;2022-10-17T06:59:22;8.55;;;7.40;;
33864;SDS011;20159;51.072;13.526;2022-10-17T07:01:47;9.15;;;7.53;;
33864;SDS011;20159;51.072;13.526;2022-10-17T07:04:13;8.60;;;6.90;;
33864;SDS011;20159;51.072;13.526;2022-10-17T07:06:38;7.95;;;6.20;;
33864;SDS011;20159;51.072;13.526;2022-10-17T07:09:04;7.97;;;6.32;;
33864;SDS011;20159;51.072;13.526;2022-10-17T07:11:31;7.00;;;5.50;;
33864;SDS011;20159;51.072;13.526;2022-10-17T07:13:57;12.35;;;5.40;;
33864;SDS011;20159;51.072;13.526;2022-10-17T07:16:23;7.82;;;5.40;;
33864;SDS011;20159;51.072;13.526;2022-10-17T07:21:17;7.07;;;4.82;;
33864;SDS011;20159;51.072;13.526;2022-10-17T07:23:43;8.00;;;5.53;;
33864;SDS011;20159;51.072;13.526;2022-10-17T07:26:12;9.30;;;5.38;;
33864;SDS011;20159;51.072;13.526;2022-10-17T07:28:41;7.53;;;5.03;;
33864;SDS011;20159;51.072;13.526;2022-10-17T07:31:09;6.30;;;5.00;;
33864;SDS011;20159;51.072;13.526;2022-10-17T07:33:40;6.95;;;5.00;;
33864;SDS011;20159;51.072;13.526;2022-10-17T07:36:07;6.55;;;5.38;;
33864;SDS011;20159;51.072;13.526;2022-10-17T07:38:33;12.10;;;6.25;;
33864;SDS011;20159;51.072;13.526;2022-10-17T07:41:00;11.35;;;5.95;;
33864;SDS011;20159;51.072;13.526;2022-10-17T07:43:28;9.77;;;6.13;;
33864;SDS011;20159;51.072;13.526;2022-10-17T07:45:55;6.63;;;5.53;;
33864;SDS011;20159;51.072;13.526;2022-10-17T07:48:21;7.82;;;6.25;;
33864;SDS011;20159;51.072;13.526;2022-10-17T07:50:48;6.90;;;5.55;;
33864;SDS011;20159;51.072;13.526;2022-10-17T07:53:15;8.38;;;6.03;;
33864;SDS011;20159;51.072;13.526;2022-10-17T07:55:41;9.50;;;6.53;;
33864;SDS011;20159;51.072;13.526;2022-10-17T07:58:08;8.48;;;6.65;;
33864;SDS011;20159;51.072;13.526;2022-10-17T08:00:37;8.27;;;6.95;;
33864;SDS011;20159;51.072;13.526;2022-10-17T08:03:03;8.63;;;6.30;;
33864;SDS011;20159;51.072;13.526;2022-10-17T08:05:30;8.57;;;6.93;;
33864;SDS011;20159;51.072;13.526;2022-10-17T08:07:56;8.63;;;7.32;;
33864;SDS011;20159;51.072;13.526;2022-10-17T08:10:22;10.80;;;6.75;;
33864;SDS011;20159;51.072;13.526;2022-10-17T08:12:53;13.80;;;7.55;;
33864;SDS011;20159;51.072;13.526;2022-10-17T08:15:20;8.82;;;7.25;;
33864;SDS011;20159;51.072;13.526;2022-10-17T08:17:46;7.60;;;6.50;;
33864;SDS011;20159;51.072;13.526;2022-10-17T08:20:11;10.75;;;7.20;;
33864;SDS011;20159;51.072;13.526;2022-10-17T08:22:37;8.07;;;6.70;;
33864;SDS011;20159;51.072;13.526;2022-10-17T08:25:03;9.73;;;6.30;;
33864;SDS011;20159;51.072;13.526;2022-10-17T08:27:29;8.18;;;6.30;;
33864;SDS011;20159;51.072;13.526;2022-10-17T08:29:56;7.90;;;5.68;;
33864;SDS011;20159;51.072;13.526;2022-10-17T08:32:22;6.18;;;5.38;;
33864;SDS011;20159;51.072;13.526;2022-10-17T08:34:50;8.75;;;5.55;;
33864;SDS011;20159;51.072;13.526;2022-10-17T08:37:16;7.60;;;5.45;;
33864;SDS011;20159;51.072;13.526;2022-10-17T08:39:42;5.57;;;5.00;;
33864;SDS011;20159;51.072;13.526;2022-10-17T08:42:23;6.30;;;5.07;;
33864;SDS011;20159;51.072;13.526;2022-10-17T08:47:34;6.43;;;5.28;;
33864;SDS011;20159;51.072;13.526;2022-10-17T08:50:03;5.70;;;4.90;;
33864;SDS011;20159;51.072;13.526;2022-10-17T08:52:47;6.13;;;5.38;;
33864;SDS011;20159;51.072;13.526;2022-10-17T08:55:45;5.75;;;5.10;;
33864;SDS011;20159;51.072;13.526;2022-10-17T09:00:40;7.28;;;5.22;;
33864;SDS011;20159;51.072;13.526;2022-10-17T09:03:18;5.97;;;5.38;;
33864;SDS011;20159;51.072;13.526;2022-10-17T09:08:27;6.65;;;4.68;;
33864;SDS011;20159;51.072;13.526;2022-10-17T09:17:25;7.22;;;4.82;;
33864;SDS011;20159;51.072;13.526;2022-10-17T09:25:24;8.80;;;5.22;;
33864;SDS011;20159;51.072;13.526;2022-10-17T09:31:23;5.47;;;4.85;;
33864;SDS011;20159;51.072;13.526;2022-10-17T09:33:26;5.82;;;5.18;;
33864;SDS011;20159;51.072;13.526;2022-10-17T09:35:55;5.38;;;4.43;;
33864;SDS011;20159;51.072;13.526;2022-10-17T09:38:22;6.05;;;4.85;;
33864;SDS011;20159;51.072;13.526;2022-10-17T09:40:56;8.45;;;4.90;;
33864;SDS011;20159;51.072;13.526;2022-10-17T09:43:24;5.97;;;4.80;;
33864;SDS011;20159;51.072;13.526;2022-10-17T09:51:10;6.95;;;5.68;;
33864;SDS011;20159;51.072;13.526;2022-10-17T09:53:37;7.15;;;5.53;;
33864;SDS011;20159;51.072;13.526;2022-10-17T09:56:07;7.50;;;5.75;;
33864;SDS011;20159;51.072;13.526;2022-10-17T10:01:20;7.50;;;6.55;;
33864;SDS011;20159;51.072;13.526;2022-10-17T10:06:36;9.15;;;7.07;;
33864;SDS011;20159;51.072;13.526;2022-10-17T10:09:03;8.18;;;6.45;;
33864;SDS011;20159;51.072;13.526;2022-10-17T10:11:45;10.65;;;7.75;;
33864;SDS011;20159;51.072;13.526;2022-10-17T10:14:21;10.55;;;7.78;;
33864;SDS011;20159;51.072;13.526;2022-10-17T10:16:46;13.98;;;9.20;;
33864;SDS011;20159;51.072;13.526;2022-10-17T10:21:57;9.45;;;8.02;;
33864;SDS011;20159;51.072;13.526;2022-10-17T10:24:39;7.63;;;6.82;;
33864;SDS011;20159;51.072;13.526;2022-10-17T10:27:04;8.85;;;7.70;;
33864;SDS011;20159;51.072;13.526;2022-10-17T10:29:37;9.68;;;7.10;;
33864;SDS011;20159;51.072;13.526;2022-10-17T10:32:06;13.27;;;7.75;;
33864;SDS011;20159;51.072;13.526;2022-10-17T10:34:35;13.18;;;8.38;;
33864;SDS011;20159;51.072;13.526;2022-10-17T10:37:17;20.77;;;9.20;;
33864;SDS011;20159;51.072;13.526;2022-10-17T10:39:47;14.95;;;8.68;;
33864;SDS011;20159;51.072;13.526;2022-10-17T10:44:56;11.85;;;8.13;;
33864;SDS011;20159;51.072;13.526;2022-10-17T10:47:28;8.80;;;7.65;;
33864;SDS011;20159;51.072;13.526;2022-10-17T10:50:15;11.25;;;9.23;;
33864;SDS011;20159;51.072;13.526;2022-10-17T10:55:41;10.80;;;8.38;;
33864;SDS011;20159;51.072;13.526;2022-10-17T11:01:28;11.70;;;8.10;;
33864;SDS011;20159;51.072;13.526;2022-10-17T11:04:26;9.60;;;8.60;;
33864;SDS011;20159;51.072;13.526;2022-10-17T11:07:03;11.80;;;8.68;;
33864;SDS011;20159;51.072;13.526;2022-10-17T11:15:25;13.70;;;8.52;;
33864;SDS011;20159;51.072;13.526;2022-10-17T11:17:59;11.48;;;9.07;;
33864;SDS011;20159;51.072;13.526;2022-10-17T11:20:29;10.95;;;9.60;;
33864;SDS011;20159;51.072;13.526;2022-10-17T11:25:45;13.10;;;9.57;;
33864;SDS011;20159;51.072;13.526;2022-10-17T11:28:14;9.48;;;8.43;;
33864;SDS011;20159;51.072;13.526;2022-10-17T11:30:53;13.30;;;9.88;;
33864;SDS011;20159;51.072;13.526;2022-10-17T11:33:28;11.00;;;9.75;;
33864;SDS011;20159;51.072;13.526;2022-10-17T11:36:02;12.07;;;8.75;;
33864;SDS011;20159;51.072;13.526;2022-10-17T11:41:13;9.48;;;8.43;;
33864;SDS011;20159;51.072;13.526;2022-10-17T11:43:58;9.13;;;7.97;;
33864;SDS011;20159;51.072;13.526;2022-10-17T11:46:44;9.30;;;7.97;;
33864;SDS011;20159;51.072;13.526;2022-10-17T11:49:16;9.48;;;8.35;;
33864;SDS011;20159;51.072;13.526;2022-10-17T11:51:48;12.20;;;8.73;;
33864;SDS011;20159;51.072;13.526;2022-10-17T11:54:39;13.90;;;9.07;;
33864;SDS011;20159;51.072;13.526;2022-10-17T11:57:14;10.90;;;8.80;;
33864;SDS011;20159;51.072;13.526;2022-10-17T12:08:32;10.07;;;8.45;;
33864;SDS011;20159;51.072;13.526;2022-10-17T12:17:08;12.68;;;7.30;;
33864;SDS011;20159;51.072;13.526;2022-10-17T12:27:48;5.57;;;4.88;;
33864;SDS011;20159;51.072;13.526;2022-10-17T12:30:16;7.28;;;5.40;;
33864;SDS011;20159;51.072;13.526;2022-10-17T12:32:52;6.00;;;4.85;;
33864;SDS011;20159;51.072;13.526;2022-10-17T12:35:25;6.10;;;4.90;;
33864;SDS011;20159;51.072;13.526;2022-10-17T12:45:51;4.60;;;3.80;;
33864;SDS011;20159;51.072;13.526;2022-10-17T12:53:47;6.05;;;4.13;;
33864;SDS011;20159;51.072;13.526;2022-10-17T12:56:21;5.35;;;3.58;;
33864;SDS011;20159;51.072;13.526;2022-10-17T12:59:27;6.55;;;4.63;;
33864;SDS011;20159;51.072;13.526;2022-10-17T13:01:56;6.18;;;4.97;;
33864;SDS011;20159;51.072;13.526;2022-10-17T13:04:24;17.33;;;6.70;;
33864;SDS011;20159;51.072;13.526;2022-10-17T13:06:51;18.00;;;7.63;;
33864;SDS011;20159;51.072;13.526;2022-10-17T13:09:25;9.27;;;6.85;;
33864;SDS011;20159;51.072;13.526;2022-10-17T13:11:57;9.30;;;7.15;;
33864;SDS011;20159;51.072;13.526;2022-10-17T13:14:25;8.48;;;7.22;;
33864;SDS011;20159;51.072;13.526;2022-10-17T13:16:56;9.05;;;7.55;;
33864;SDS011;20159;51.072;13.526;2022-10-17T13:19:30;10.85;;;7.38;;
33864;SDS011;20159;51.072;13.526;2022-10-17T13:22:17;8.18;;;6.95;;
33864;SDS011;20159;51.072;13.526;2022-10-17T13:24:45;10.73;;;6.95;;
33864;SDS011;20159;51.072;13.526;2022-10-17T13:27:23;7.97;;;7.15;;
33864;SDS011;20159;51.072;13.526;2022-10-17T13:29:56;8.95;;;7.28;;
33864;SDS011;20159;51.072;13.526;2022-10-17T13:32:24;8.48;;;7.20;;
33864;SDS011;20159;51.072;13.526;2022-10-17T13:35:10;9.15;;;7.30;;
33864;SDS011;20159;51.072;13.526;2022-10-17T13:37:39;9.35;;;7.97;;
33864;SDS011;20159;51.072;13.526;2022-10-17T13:40:17;9.30;;;7.38;;
33864;SDS011;20159;51.072;13.526;2022-10-17T13:42:44;9.27;;;7.20;;
33864;SDS011;20159;51.072;13.526;2022-10-17T13:45:14;9.25;;;8.25;;
33864;SDS011;20159;51.072;13.526;2022-10-17T13:47:43;10.13;;;8.23;;
33864;SDS011;20159;51.072;13.526;2022-10-17T13:50:15;10.52;;;8.98;;
33864;SDS011;20159;51.072;13.526;2022-10-17T13:53:06;9.85;;;8.50;;
33864;SDS011;20159;51.072;13.526;2022-10-17T13:55:53;10.27;;;8.43;;
33864;SDS011;20159;51.072;13.526;2022-10-17T13:58:48;10.25;;;9.13;;
33864;SDS011;20159;51.072;13.526;2022-10-17T14:01:21;12.48;;;9.27;;
33864;SDS011;20159;51.072;13.526;2022-10-17T14:03:48;10.02;;;8.75;;
33864;SDS011;20159;51.072;13.526;2022-10-17T14:06:15;11.95;;;9.35;;
33864;SDS011;20159;51.072;13.526;2022-10-17T14:09:34;14.07;;;9.60;;
33864;SDS011;20159;51.072;13.526;2022-10-17T14:11:56;12.10;;;9.73;;
33864;SDS011;20159;51.072;13.526;2022-10-17T14:14:24;14.57;;;9.60;;
33864;SDS011;20159;51.072;13.526;2022-10-17T14:16:50;14.90;;;9.55;;
33864;SDS011;20159;51.072;13.526;2022-10-17T14:19:26;11.50;;;9.43;;
33864;SDS011;20159;51.072;13.526;2022-10-17T14:21:55;12.70;;;9.68;;
33864;SDS011;20159;51.072;13.526;2022-10-17T14:24:43;14.50;;;9.25;;
33864;SDS011;20159;51.072;13.526;2022-10-17T14:32:50;12.90;;;10.07;;
33864;SDS011;20159;51.072;13.526;2022-10-17T14:35:21;15.60;;;10.45;;
33864;SDS011;20159;51.072;13.526;2022-10-17T14:37:47;13.55;;;10.50;;
33864;SDS011;20159;51.072;13.526;2022-10-17T14:42:45;12.43;;;10.13;;
33864;SDS011;20159;51.072;13.526;2022-10-17T14:45:13;13.45;;;9.55;;
33864;SDS011;20159;51.072;13.526;2022-10-17T14:47:43;13.05;;;10.43;;
33864;SDS011;20159;51.072;13.526;2022-10-17T14:52:39;14.13;;;10.45;;
33864;SDS011;20159;51.072;13.526;2022-10-17T14:55:24;12.77;;;9.85;;
33864;SDS011;20159;51.072;13.526;2022-10-17T15:00:16;10.90;;;8.10;;
33864;SDS011;20159;51.072;13.526;2022-10-17T15:02:44;9.75;;;8.00;;
33864;SDS011;20159;51.072;13.526;2022-10-17T15:05:10;12.10;;;7.47;;
33864;SDS011;20159;51.072;13.526;2022-10-17T15:07:36;9.90;;;7.93;;
33864;SDS011;20159;51.072;13.526;2022-10-17T15:10:02;11.38;;;8.05;;
33864;SDS011;20159;51.072;13.526;2022-10-17T15:12:28;9.23;;;7.15;;
33864;SDS011;20159;51.072;13.526;2022-10-17T15:14:55;11.05;;;6.75;;
33864;SDS011;20159;51.072;13.526;2022-10-17T15:17:25;8.07;;;6.75;;
33864;SDS011;20159;51.072;13.526;2022-10-17T15:19:52;10.68;;;6.90;;
33864;SDS011;20159;51.072;13.526;2022-10-17T15:22:18;11.50;;;7.45;;
33864;SDS011;20159;51.072;13.526;2022-10-17T15:24:44;9.52;;;7.40;;
33864;SDS011;20159;51.072;13.526;2022-10-17T15:27:14;9.88;;;7.57;;
33864;SDS011;20159;51.072;13.526;2022-10-17T15:29:44;9.15;;;6.68;;
33864;SDS011;20159;51.072;13.526;2022-10-17T15:32:10;13.23;;;7.15;;
33864;SDS011;20159;51.072;13.526;2022-10-17T15:34:36;9.38;;;7.15;;
33864;SDS011;20159;51.072;13.526;2022-10-17T15:37:02;8.30;;;7.30;;
33864;SDS011;20159;51.072;13.526;2022-10-17T15:39:29;9.85;;;7.68;;
33864;SDS011;20159;51.072;13.526;2022-10-17T15:41:55;11.00;;;7.85;;
33864;SDS011;20159;51.072;13.526;2022-10-17T15:44:20;20.40;;;8.98;;
33864;SDS011;20159;51.072;13.526;2022-10-17T15:46:46;11.32;;;9.05;;
33864;SDS011;20159;51.072;13.526;2022-10-17T15:49:13;12.20;;;9.05;;
33864;SDS011;20159;51.072;13.526;2022-10-17T15:51:41;12.32;;;9.82;;
33864;SDS011;20159;51.072;13.526;2022-10-17T15:54:07;14.85;;;11.38;;
33864;SDS011;20159;51.072;13.526;2022-10-17T15:56:34;16.15;;;11.65;;
33864;SDS011;20159;51.072;13.526;2022-10-17T15:59:03;15.00;;;11.95;;
33864;SDS011;20159;51.072;13.526;2022-10-17T16:01:31;15.20;;;11.40;;
33864;SDS011;20159;51.072;13.526;2022-10-17T16:03:58;16.15;;;11.75;;
33864;SDS011;20159;51.072;13.526;2022-10-17T16:06:24;16.92;;;12.13;;
33864;SDS011;20159;51.072;13.526;2022-10-17T16:08:50;16.65;;;12.80;;
33864;SDS011;20159;51.072;13.526;2022-10-17T16:11:27;19.63;;;12.07;;
33864;SDS011;20159;51.072;13.526;2022-10-17T16:14:02;16.53;;;12.77;;
33864;SDS011;20159;51.072;13.526;2022-10-17T16:16:30;16.88;;;13.40;;
33864;SDS011;20159;51.072;13.526;2022-10-17T16:18:56;15.82;;;12.75;;
33864;SDS011;20159;51.072;13.526;2022-10-17T16:21:24;16.30;;;13.05;;
33864;SDS011;20159;51.072;13.526;2022-10-17T16:23:51;15.85;;;12.85;;
33864;SDS011;20159;51.072;13.526;2022-10-17T16:26:17;13.88;;;12.35;;
33864;SDS011;20159;51.072;13.526;2022-10-17T16:28:44;16.77;;;13.52;;
33864;SDS011;20159;51.072;13.526;2022-10-17T16:33:50;16.55;;;12.48;;
33864;SDS011;20159;51.072;13.526;2022-10-17T16:36:17;15.77;;;13.10;;
33864;SDS011;20159;51.072;13.526;2022-10-17T16:38:44;17.52;;;14.13;;
33864;SDS011;20159;51.072;13.526;2022-10-17T16:41:14;16.77;;;13.65;;
33864;SDS011;20159;51.072;13.526;2022-10-17T16:43:44;19.05;;;13.07;;
33864;SDS011;20159;51.072;13.526;2022-10-17T16:46:10;17.85;;;13.88;;
33864;SDS011;20159;51.072;13.526;2022-10-17T16:48:36;17.42;;;13.88;;
33864;SDS011;20159;51.072;13.526;2022-10-17T16:51:01;16.40;;;13.63;;
33864;SDS011;20159;51.072;13.526;2022-10-17T16:53:27;17.20;;;14.23;;
33864;SDS011;20159;51.072;13.526;2022-10-17T16:55:59;17.63;;;14.02;;
33864;SDS011;20159;51.072;13.526;2022-10-17T16:58:26;28.48;;;14.68;;
33864;SDS011;20159;51.072;13.526;2022-10-17T17:00:54;17.08;;;13.68;;
33864;SDS011;20159;51.072;13.526;2022-10-17T17:03:23;17.58;;;14.30;;